Time;durP1;ratioP1;P1;durP2;ratioP2;P2;SDS_P1;SDS_P2;PMS_P1;PMS_P2;Temp;Humidity;BMP_temperature;BMP_pressure;BME280_temperature;BME280_humidity;BME280_pressure;Samples;Min_cycle;Max_cycle;Signal;HPM_P1;HPM_P2
2022/11/12 00:02:12;;;;;;;3.78;2.33;;;;;;;-145.48;100.00;64539.38;6047606;29;20100;-95
2022/11/12 00:05:33;;;;;;;4.38;2.63;;;;;;;-145.48;100.00;64539.38;6036945;29;20066;-94
2022/11/12 00:08:54;;;;;;;3.17;2.03;;;;;;;-145.48;100.00;64539.38;6048911;29;20073;-95
2022/11/12 00:12:14;;;;;;;3.90;2.45;;;;;;;-145.48;100.00;64539.38;6041497;29;20056;-94
2022/11/12 00:15:35;;;;;;;3.92;2.67;;;;;;;-145.48;100.00;64539.38;6051814;29;20496;-94
2022/11/12 00:18:55;;;;;;;3.38;2.40;;;;;;;-145.48;100.00;64539.38;6038988;29;20502;-94
2022/11/12 00:22:16;;;;;;;3.45;2.40;;;;;;;-145.48;100.00;64539.38;6049903;29;20069;-94
2022/11/12 00:25:38;;;;;;;4.22;2.88;;;;;;;-145.48;100.00;64539.38;6045322;29;20060;-94
2022/11/12 00:28:58;;;;;;;7.60;3.50;;;;;;;-145.48;100.00;64539.38;6050316;29;20057;-94
2022/11/12 00:32:19;;;;;;;7.60;3.55;;;;;;;-145.48;100.00;64539.38;6048948;29;20275;-94
2022/11/12 00:35:40;;;;;;;4.20;2.90;;;;;;;-145.48;100.00;64539.38;6037270;29;20358;-94
2022/11/12 00:39:00;;;;;;;3.97;2.75;;;;;;;-145.48;100.00;64539.38;6046100;29;20072;-94
2022/11/12 00:42:20;;;;;;;4.03;2.80;;;;;;;-145.48;100.00;64539.38;6041279;29;20081;-94
2022/11/12 00:45:42;;;;;;;3.25;2.35;;;;;;;-145.48;100.00;64539.38;6049467;29;20048;-94
2022/11/12 00:49:02;;;;;;;5.70;2.65;;;;;;;-145.48;100.00;64539.38;6037403;29;20598;-94
2022/11/12 00:52:23;;;;;;;3.03;2.35;;;;;;;-145.48;100.00;64539.38;6043477;29;20089;-95
2022/11/12 00:55:44;;;;;;;4.63;2.17;;;;;;;-145.48;100.00;64539.38;6028251;29;20057;-95
2022/11/12 00:59:04;;;;;;;6.75;2.33;;;;;;;-145.48;100.00;64539.38;6036487;29;20045;-94
2022/11/12 01:02:24;;;;;;;4.72;2.13;;;;;;;-145.48;100.00;64539.38;6039189;29;20473;-94
2022/11/12 01:05:45;;;;;;;6.18;2.10;;;;;;;-145.48;100.00;64539.38;6041617;29;20057;-94
2022/11/12 01:09:07;;;;;;;5.32;2.58;;;;;;;-145.48;100.00;64539.38;6059454;29;20139;-94
2022/11/12 01:12:30;;;;;;;4.10;2.55;;;;;;;-145.48;100.00;64539.38;6054800;29;20878;-93
2022/11/12 01:15:50;;;;;;;3.95;2.45;;;;;;;-145.48;100.00;64539.38;6051057;29;20571;-94
2022/11/12 01:19:12;;;;;;;3.47;2.58;;;;;;;-145.48;100.00;64539.38;6054237;29;20049;-93
2022/11/12 01:22:33;;;;;;;3.40;2.47;;;;;;;-145.48;100.00;64539.38;6040646;29;20041;-94
2022/11/12 01:25:55;;;;;;;3.10;2.25;;;;;;;-145.48;100.00;64539.38;6043456;29;20053;-94
2022/11/12 01:29:15;;;;;;;4.38;2.42;;;;;;;-145.48;100.00;64539.38;6054216;29;20053;-94
2022/11/12 01:32:36;;;;;;;4.90;3.05;;;;;;;-145.48;100.00;64539.38;6052774;29;20087;-94
2022/11/12 01:35:58;;;;;;;3.55;2.28;;;;;;;-145.48;100.00;64539.38;6041756;29;20514;-94
2022/11/12 01:39:19;;;;;;;5.97;2.33;;;;;;;-145.48;100.00;64539.38;6042558;29;20049;-94
2022/11/12 01:42:39;;;;;;;3.08;2.20;;;;;;;-145.48;100.00;64539.38;6036060;29;20523;-94
2022/11/12 01:46:03;;;;;;;3.42;2.13;;;;;;;-145.48;100.00;64539.38;6036223;29;20144;-95
2022/11/12 01:49:54;;;;;;;6.90;2.70;;;;;;;-145.48;100.00;64539.38;6065032;29;20480;-95
2022/11/12 01:53:18;;;;;;;2.67;2.25;;;;;;;-145.48;100.00;64539.38;6054855;29;20420;-95
2022/11/12 01:56:40;;;;;;;3.10;2.25;;;;;;;-145.48;100.00;64539.38;6046672;29;20508;-94
2022/11/12 02:00:06;;;;;;;3.42;2.25;;;;;;;-145.48;100.00;64539.38;6052427;29;20053;-94
2022/11/12 02:03:27;;;;;;;3.85;2.70;;;;;;;-145.48;100.00;64539.38;6050011;29;20097;-95
2022/11/12 02:06:50;;;;;;;4.88;2.83;;;;;;;-145.48;100.00;64539.38;6034680;29;20586;-94
2022/11/12 02:10:11;;;;;;;6.00;2.55;;;;;;;-145.48;100.00;64539.38;6026337;29;20508;-94
2022/11/12 02:17:10;;;;;;;5.00;2.58;;;;;;;-145.48;100.00;64539.38;6024038;29;20377;-94
2022/11/12 02:20:35;;;;;;;4.60;2.80;;;;;;;-145.48;100.00;64539.38;6046572;29;20057;-94
2022/11/12 02:24:04;;;;;;;6.93;3.00;;;;;;;-145.48;100.00;64539.38;6024737;29;20053;-94
2022/11/12 02:27:25;;;;;;;5.63;3.17;;;;;;;-145.48;100.00;64539.38;6034214;29;20319;-95
2022/11/12 02:30:48;;;;;;;3.67;2.50;;;;;;;-145.48;100.00;64539.38;6040257;29;20057;-94
2022/11/12 02:34:08;;;;;;;4.70;3.20;;;;;;;-145.48;100.00;64539.38;6036863;29;20134;-94
2022/11/12 02:37:28;;;;;;;5.22;3.28;;;;;;;-145.48;100.00;64539.38;6050461;29;20402;-94
2022/11/12 02:40:49;;;;;;;4.95;3.22;;;;;;;-145.48;100.00;64539.38;6039262;29;20088;-94
2022/11/12 02:44:09;;;;;;;4.03;3.00;;;;;;;-145.48;100.00;64539.38;6038260;29;20053;-94
2022/11/12 02:47:30;;;;;;;4.25;3.00;;;;;;;-145.48;100.00;64539.38;6049640;29;20096;-94
2022/11/12 02:50:50;;;;;;;4.13;2.80;;;;;;;-145.48;100.00;64539.38;6043359;29;20049;-94
2022/11/12 02:54:11;;;;;;;3.53;2.92;;;;;;;-145.48;100.00;64539.38;6025608;29;20661;-94
2022/11/12 02:57:31;;;;;;;5.63;2.60;;;;;;;-145.48;100.00;64539.38;6036440;29;20108;-94
2022/11/12 03:00:51;;;;;;;5.50;2.75;;;;;;;-145.48;100.00;64539.38;6032372;29;20053;-94
2022/11/12 03:04:12;;;;;;;3.37;2.60;;;;;;;-145.48;100.00;64539.38;6028970;29;20073;-94
2022/11/12 03:07:32;;;;;;;4.82;2.88;;;;;;;-145.48;100.00;64539.38;6036341;29;20757;-94
2022/11/12 03:10:53;;;;;;;4.55;3.00;;;;;;;-145.48;100.00;64539.38;6034487;29;20053;-94
2022/11/12 03:14:13;;;;;;;5.80;3.05;;;;;;;-145.48;100.00;64539.38;6029434;29;20558;-93
2022/11/12 03:17:34;;;;;;;4.47;2.90;;;;;;;-145.48;100.00;64539.38;6022346;29;20053;-94
2022/11/12 03:20:54;;;;;;;5.40;2.83;;;;;;;-145.48;100.00;64539.38;6040481;29;20065;-95
2022/11/12 03:24:15;;;;;;;4.50;2.65;;;;;;;-145.48;100.00;64539.38;6037883;29;20053;-94
2022/11/12 03:27:35;;;;;;;5.60;2.85;;;;;;;-145.48;100.00;64539.38;6020806;29;20049;-94
2022/11/12 03:30:58;;;;;;;4.57;2.85;;;;;;;-145.48;100.00;64539.38;6037425;29;20057;-94
2022/11/12 03:34:18;;;;;;;4.43;2.60;;;;;;;-145.48;100.00;64539.38;6040813;29;20057;-94
2022/11/12 03:37:38;;;;;;;6.30;3.10;;;;;;;-145.48;100.00;64539.38;6029320;29;20057;-94
2022/11/12 03:40:59;;;;;;;4.85;3.13;;;;;;;-145.48;100.00;64539.38;6032424;29;20282;-94
2022/11/12 03:44:19;;;;;;;5.13;3.08;;;;;;;-145.48;100.00;64539.38;6023157;29;20057;-94
2022/11/12 03:47:44;;;;;;;6.80;3.10;;;;;;;-145.48;100.00;64539.38;6040240;29;20057;-94
2022/11/12 03:51:04;;;;;;;5.60;3.53;;;;;;;-145.48;100.00;64539.38;6034741;29;20053;-94
2022/11/12 03:54:25;;;;;;;6.93;2.80;;;;;;;-145.48;100.00;64539.38;6038031;29;20128;-94
2022/11/12 03:57:50;;;;;;;6.97;3.40;;;;;;;-145.48;100.00;64539.38;6047686;29;20049;-94
2022/11/12 04:01:11;;;;;;;4.80;3.25;;;;;;;-145.48;100.00;64539.38;6048351;29;20128;-94
2022/11/12 04:08:38;;;;;;;5.28;3.25;;;;;;;-145.48;100.00;64539.38;6032052;29;20474;-93
2022/11/12 04:13:26;;;;;;;5.40;3.60;;;;;;;-145.48;100.00;64539.38;6043239;29;20052;-94
2022/11/12 04:15:38;;;;;;;5.63;3.13;;;;;;;-145.48;100.00;64539.38;6036477;29;20587;-94
2022/11/12 04:22:39;;;;;;;4.68;3.13;;;;;;;-145.48;100.00;64539.38;6042837;29;20625;-93
2022/11/12 04:33:19;;;;;;;8.03;3.57;;;;;;;-145.48;100.00;64539.38;6036573;29;20053;-94
2022/11/12 04:36:40;;;;;;;4.35;3.20;;;;;;;-145.48;100.00;64539.38;6032472;29;20053;-94
2022/11/12 04:44:58;;;;;;;7.57;3.28;;;;;;;-145.48;100.00;64539.38;6034168;29;20053;-93
2022/11/12 04:47:19;;;;;;;5.57;3.35;;;;;;;-145.48;100.00;64539.38;6037815;29;20156;-93
2022/11/12 04:50:43;;;;;;;4.03;3.17;;;;;;;-145.48;100.00;64539.38;6044587;29;20090;-93
2022/11/12 04:54:03;;;;;;;5.80;3.08;;;;;;;-145.48;100.00;64539.38;6038613;29;20484;-94
2022/11/12 04:57:24;;;;;;;6.18;3.42;;;;;;;-145.48;100.00;64539.38;6038015;29;20574;-93
2022/11/12 05:00:45;;;;;;;3.83;3.42;;;;;;;-145.48;100.00;64539.38;6050145;29;20049;-93
2022/11/12 05:04:05;;;;;;;5.43;3.28;;;;;;;-145.48;100.00;64539.38;6042954;29;20056;-94
2022/11/12 05:07:25;;;;;;;5.43;3.47;;;;;;;-145.48;100.00;64539.38;6049818;29;20053;-93
2022/11/12 05:10:46;;;;;;;5.32;3.00;;;;;;;-145.48;100.00;64539.38;6040514;29;20057;-94
2022/11/12 05:14:06;;;;;;;4.72;3.25;;;;;;;-145.48;100.00;64539.38;6046317;29;20515;-93
2022/11/12 05:17:27;;;;;;;6.05;3.22;;;;;;;-145.48;100.00;64539.38;6050550;29;20441;-93
2022/11/12 05:20:50;;;;;;;6.10;3.00;;;;;;;-145.48;100.00;64539.38;6028820;29;20163;-94
2022/11/12 05:24:10;;;;;;;5.90;3.20;;;;;;;-145.48;100.00;64539.38;6051719;29;20680;-94
2022/11/12 05:27:52;;;;;;;5.03;3.13;;;;;;;-145.48;100.00;64539.38;6056858;29;20056;-94
2022/11/12 05:31:12;;;;;;;6.00;3.35;;;;;;;-145.48;100.00;64539.38;6053989;29;20496;-94
2022/11/12 05:34:33;;;;;;;4.55;3.15;;;;;;;-145.48;100.00;64539.38;6032972;29;20049;-94
2022/11/12 05:37:53;;;;;;;8.07;4.10;;;;;;;-145.48;100.00;64539.38;6021605;29;20049;-94
2022/11/12 05:41:14;;;;;;;4.93;3.35;;;;;;;-145.48;100.00;64539.38;6049326;29;20060;-94
2022/11/12 05:44:40;;;;;;;3.60;2.72;;;;;;;-145.48;100.00;64539.38;6043435;29;20048;-94
2022/11/12 05:48:00;;;;;;;4.65;3.15;;;;;;;-145.48;100.00;64539.38;6037849;29;20048;-94
2022/11/12 05:51:21;;;;;;;6.80;4.00;;;;;;;-145.48;100.00;64539.38;6030221;29;20144;-93
2022/11/12 05:54:41;;;;;;;4.65;3.58;;;;;;;-145.48;100.00;64539.38;6033128;29;20057;-94
2022/11/12 05:58:05;;;;;;;8.27;4.50;;;;;;;-145.48;100.00;64539.38;6057957;29;20049;-93
2022/11/12 06:01:26;;;;;;;7.88;4.45;;;;;;;-145.48;100.00;64539.38;6028760;29;20536;-94
2022/11/12 06:04:46;;;;;;;8.18;4.43;;;;;;;-145.48;100.00;64539.38;6035519;29;20057;-94
2022/11/12 06:08:06;;;;;;;5.35;3.92;;;;;;;-145.48;100.00;64539.38;6032725;29;20273;-94
2022/11/12 06:11:27;;;;;;;7.20;3.97;;;;;;;-145.48;100.00;64539.38;6034942;29;20594;-94
2022/11/12 06:14:47;;;;;;;7.03;4.13;;;;;;;-145.48;100.00;64539.38;6029225;29;20386;-93
2022/11/12 06:18:08;;;;;;;6.65;3.50;;;;;;;-145.48;100.00;64539.38;6050670;29;20057;-93
2022/11/12 06:21:28;;;;;;;5.65;3.35;;;;;;;-145.48;100.00;64539.38;6037819;29;20061;-94
2022/11/12 06:24:49;;;;;;;5.82;3.25;;;;;;;-145.48;100.00;64539.38;6048478;29;20057;-93
2022/11/12 06:28:09;;;;;;;4.28;3.42;;;;;;;-145.48;100.00;64539.38;6038017;29;20361;-94
2022/11/12 06:31:29;;;;;;;6.10;3.67;;;;;;;-145.48;100.00;64539.38;6041474;29;20711;-94
2022/11/12 06:34:52;;;;;;;6.93;4.28;;;;;;;-145.48;100.00;64539.38;6025429;29;20057;-93
2022/11/12 06:38:13;;;;;;;7.22;4.38;;;;;;;-145.48;100.00;64539.38;6028049;29;20412;-93
2022/11/12 06:41:33;;;;;;;6.30;4.23;;;;;;;-145.48;100.00;64539.38;6031768;29;20056;-93
2022/11/12 06:44:53;;;;;;;7.78;4.40;;;;;;;-145.48;100.00;64539.38;6031835;29;20302;-93
2022/11/12 06:48:13;;;;;;;7.68;4.25;;;;;;;-145.48;100.00;64539.38;6025288;29;20568;-93
2022/11/12 06:51:34;;;;;;;7.28;4.70;;;;;;;-145.48;100.00;64539.38;6038694;29;20052;-93
2022/11/12 06:54:54;;;;;;;8.93;4.22;;;;;;;-145.48;100.00;64539.38;6052042;29;20044;-94
2022/11/12 06:58:15;;;;;;;6.88;4.32;;;;;;;-145.48;100.00;64539.38;6043252;29;20057;-94
2022/11/12 07:01:35;;;;;;;9.07;5.38;;;;;;;-145.48;100.00;64539.38;6043722;29;20057;-93
2022/11/12 07:04:56;;;;;;;7.75;5.00;;;;;;;-145.48;100.00;64539.38;6019277;29;20568;-93
2022/11/12 07:08:16;;;;;;;8.40;4.93;;;;;;;-145.48;100.00;64539.38;6043503;29;20057;-93
2022/11/12 07:11:37;;;;;;;8.45;5.10;;;;;;;-145.48;100.00;64539.38;6041367;29;20056;-93
2022/11/12 07:14:57;;;;;;;7.47;4.72;;;;;;;-145.48;100.00;64539.38;6042224;29;20045;-93
2022/11/12 07:18:17;;;;;;;6.63;4.15;;;;;;;-145.48;100.00;64539.38;6041906;29;20057;-93
2022/11/12 07:21:38;;;;;;;6.53;4.07;;;;;;;-145.48;100.00;64539.38;6033948;29;20053;-93
2022/11/12 07:24:58;;;;;;;7.30;3.97;;;;;;;-145.48;100.00;64539.38;6031453;29;20431;-93
2022/11/12 07:28:18;;;;;;;8.85;5.03;;;;;;;-145.48;100.00;64539.38;6045827;29;20314;-93
2022/11/12 07:31:38;;;;;;;7.60;4.40;;;;;;;-145.48;100.00;64539.38;6041081;29;20057;-93
2022/11/12 07:34:59;;;;;;;9.98;5.07;;;;;;;-145.48;100.00;64539.38;6041127;29;20045;-94
2022/11/12 07:38:19;;;;;;;7.20;4.72;;;;;;;-145.48;100.00;64539.38;6044735;29;20057;-94
2022/11/12 07:41:40;;;;;;;7.53;4.97;;;;;;;-145.48;100.00;64539.38;6052838;29;20061;-94
2022/11/12 07:45:00;;;;;;;6.97;4.82;;;;;;;-145.48;100.00;64539.38;6042655;29;20301;-93
2022/11/12 07:48:20;;;;;;;8.98;4.78;;;;;;;-145.48;100.00;64539.38;6049079;29;20049;-95
2022/11/12 07:51:41;;;;;;;5.05;3.75;;;;;;;-145.48;100.00;64539.38;6038124;29;20049;-94
2022/11/12 07:55:01;;;;;;;7.53;4.55;;;;;;;-145.48;100.00;64539.38;6032512;29;20503;-94
2022/11/12 07:58:22;;;;;;;9.00;6.90;;;;;;;-145.48;100.00;64539.38;6044341;29;20049;-93
2022/11/12 08:01:44;;;;;;;9.93;5.82;;;;;;;-145.48;100.00;64539.38;6037835;29;20044;-94
2022/11/12 08:05:05;;;;;;;10.68;5.80;;;;;;;-145.48;100.00;64539.38;6046329;29;20066;-94
2022/11/12 08:08:33;;;;;;;9.10;5.03;;;;;;;-145.48;100.00;64539.38;6041844;29;20057;-94
2022/11/12 08:11:54;;;;;;;8.75;4.75;;;;;;;-145.48;100.00;64539.38;6047565;29;20488;-93
2022/11/12 08:15:15;;;;;;;8.60;5.70;;;;;;;-145.48;100.00;64539.38;6027613;29;20057;-94
2022/11/12 08:18:35;;;;;;;;;;;;;;;-145.48;100.00;64539.38;6038404;29;20492;-94
2022/11/12 08:21:56;;;;;;;9.38;6.05;;;;;;;-145.48;100.00;64539.38;6054227;29;20029;-94
2022/11/12 08:25:17;;;;;;;12.98;6.82;;;;;;;-145.48;100.00;64539.38;6048824;29;20400;-94
2022/11/12 08:28:39;;;;;;;7.18;5.78;;;;;;;-145.48;100.00;64539.38;6030803;29;20057;-95
2022/11/12 08:31:59;;;;;;;11.70;5.40;;;;;;;-145.48;100.00;64539.38;6037222;29;20056;-95
2022/11/12 08:35:20;;;;;;;7.32;4.38;;;;;;;-145.48;100.00;64539.38;6037370;29;20040;-95
2022/11/12 08:38:41;;;;;;;12.18;5.47;;;;;;;-145.48;100.00;64539.38;6034834;29;20054;-96
2022/11/12 08:42:01;;;;;;;9.15;4.70;;;;;;;-145.48;100.00;64539.38;6031889;29;20033;-95
2022/11/12 08:45:21;;;;;;;7.55;4.47;;;;;;;-145.48;100.00;64539.38;6029814;29;20180;-95
2022/11/12 08:48:42;;;;;;;9.23;4.40;;;;;;;-145.48;100.00;64539.38;6044332;29;20057;-96
2022/11/12 08:52:03;;;;;;;7.07;4.53;;;;;;;-145.48;100.00;64539.38;6055145;29;20052;-95
2022/11/12 08:55:23;;;;;;;4.68;3.33;;;;;;;-145.48;100.00;64539.38;6045625;29;20052;-95
2022/11/12 08:58:44;;;;;;;7.53;3.70;;;;;;;-145.48;100.00;64539.38;6030084;29;20144;-95
2022/11/12 09:02:05;;;;;;;8.10;4.32;;;;;;;-145.48;100.00;64539.38;6028072;29;20136;-95
2022/11/12 09:05:26;;;;;;;5.68;3.65;;;;;;;-145.48;100.00;64539.38;6033394;29;20500;-95
2022/11/12 09:08:46;;;;;;;;;;;;;;;-145.48;100.00;64539.38;6044995;29;20711;-96
2022/11/12 09:12:07;;;;;;;6.82;3.70;;;;;;;-145.48;100.00;64539.38;6039738;29;20434;-96
2022/11/12 09:15:37;;;;;;;4.95;3.63;;;;;;;-145.48;100.00;64539.38;6043212;29;20445;-96
2022/11/12 09:18:58;;;;;;;7.70;4.00;;;;;;;-145.48;100.00;64539.38;6038356;29;20053;-96
2022/11/12 09:22:18;;;;;;;4.38;3.17;;;;;;;-145.48;100.00;64539.38;6046439;29;20064;-96
2022/11/12 09:25:40;;;;;;;4.90;2.85;;;;;;;-145.48;100.00;64539.38;6044436;29;20492;-96
2022/11/12 09:29:02;;;;;;;4.68;3.33;;;;;;;-145.48;100.00;64539.38;6037068;29;20045;-96
2022/11/12 09:32:22;;;;;;;6.68;3.53;;;;;;;-145.48;100.00;64539.38;6042397;29;20071;-96
2022/11/12 09:35:44;;;;;;;4.55;3.53;;;;;;;-145.48;100.00;64539.38;6044675;29;20052;-96
2022/11/12 09:39:04;;;;;;;6.63;3.80;;;;;;;-145.48;100.00;64539.38;6034045;29;20057;-96
2022/11/12 09:42:25;;;;;;;5.50;3.53;;;;;;;-145.48;100.00;64539.38;6040270;29;20041;-95
2022/11/12 09:45:47;;;;;;;5.97;3.35;;;;;;;-145.48;100.00;64539.38;6027592;29;20084;-96
2022/11/12 09:50:02;;;;;;;5.55;3.83;;;;;;;-145.48;100.00;64539.38;6035575;29;20435;-96
2022/11/12 09:53:41;;;;;;;4.47;3.45;;;;;;;-145.48;100.00;64539.38;6006557;29;20718;-96
2022/11/12 09:57:04;;;;;;;4.68;3.55;;;;;;;-145.48;100.00;64539.38;6016921;29;20076;-96
2022/11/12 10:00:25;;;;;;;6.60;3.33;;;;;;;-145.48;100.00;64539.38;6015238;29;20084;-95
2022/11/12 10:04:08;;;;;;;;;;;;;;;-145.48;100.00;64539.38;6016664;29;20060;-95
2022/11/12 10:07:44;;;;;;;3.78;2.92;;;;;;;-145.48;100.00;64539.38;5965985;29;20532;-96
2022/11/12 10:11:30;;;;;;;5.30;3.00;;;;;;;-145.48;100.00;64539.38;5972456;29;20085;-96
2022/11/12 10:19:26;;;;;;;4.68;2.83;;;;;;;-145.48;100.00;64539.38;5964953;29;20059;-96
2022/11/12 10:23:12;;;;;;;3.90;2.97;;;;;;;-145.48;100.00;64539.38;5968655;29;20513;-95
2022/11/12 10:26:33;;;;;;;5.78;3.13;;;;;;;-145.48;100.00;64539.38;5968226;29;20054;-95
2022/11/12 10:30:06;;;;;;;7.43;2.95;;;;;;;-145.48;100.00;64539.38;5946527;29;20459;-96
2022/11/12 10:33:30;;;;;;;4.00;2.67;;;;;;;-145.48;100.00;64539.38;5956122;29;20055;-95
2022/11/12 10:36:59;;;;;;;2.92;2.42;;;;;;;-145.48;100.00;64539.38;5957527;29;20492;-95
2022/11/12 10:40:21;;;;;;;5.00;2.03;;;;;;;-145.48;100.00;64539.38;5954835;29;20050;-96
2022/11/12 10:43:51;;;;;;;;;;;;;;;-145.48;100.00;64539.38;5978407;29;20492;-96
2022/11/12 10:47:20;;;;;;;2.45;2.25;;;;;;;-145.48;100.00;64539.38;6021867;29;19924;-96
2022/11/12 10:50:42;;;;;;;3.33;2.42;;;;;;;-145.48;100.00;64539.38;6035366;29;20436;-96
2022/11/12 10:54:36;;;;;;;2.47;2.25;;;;;;;-145.48;100.00;64539.38;6037127;29;20044;-95
2022/11/12 10:58:10;;;;;;;4.05;2.53;;;;;;;-145.48;100.00;64539.38;6035371;29;20500;-96
2022/11/12 11:01:32;;;;;;;4.22;2.33;;;;;;;-145.48;100.00;64539.38;6034919;29;20100;-96
2022/11/12 11:04:56;;;;;;;4.25;2.67;;;;;;;-145.48;100.00;64539.38;6039983;29;20049;-93
2022/11/12 11:08:41;;;;;;;4.35;2.60;;;;;;;-145.48;100.00;64539.38;6032771;29;20057;-93
2022/11/12 11:12:02;;;;;;;3.35;2.38;;;;;;;-145.48;100.00;64539.38;6042210;29;20044;-93
2022/11/12 11:15:23;;;;;;;2.70;2.40;;;;;;;-145.48;100.00;64539.38;6032793;29;20068;-93
2022/11/12 11:18:58;;;;;;;;;;;;;;;-145.48;100.00;64539.38;6043910;29;20056;-93
2022/11/12 11:22:34;;;;;;;3.67;2.50;;;;;;;-145.48;100.00;64539.38;6031307;29;20367;-94
2022/11/12 11:26:15;;;;;;;2.92;1.80;;;;;;;-145.48;100.00;64539.38;6036377;29;20057;-93
2022/11/12 11:30:02;;;;;;;3.17;2.20;;;;;;;-145.48;100.00;64539.38;6032834;29;20512;-94
2022/11/12 11:33:47;;;;;;;4.20;2.15;;;;;;;-145.48;100.00;64539.38;6029039;29;20064;-91
2022/11/12 11:37:29;;;;;;;2.75;2.17;;;;;;;-145.48;100.00;64539.38;6035754;29;20061;-90
2022/11/12 11:41:04;;;;;;;7.72;4.30;;;;;;;-145.48;100.00;64539.38;6033293;29;20076;-92
2022/11/12 11:44:34;;;;;;;16.17;12.23;;;;;;;-145.48;100.00;64539.38;6027278;29;20042;-91
2022/11/12 11:48:29;;;;;;;29.15;22.00;;;;;;;-145.48;100.00;64539.38;6035301;29;20215;-93
2022/11/12 11:52:32;;;;;;;6.80;4.13;;;;;;;-145.48;100.00;64539.38;6037377;29;20500;-92
2022/11/12 11:55:54;;;;;;;11.52;10.13;;;;;;;-145.48;100.00;64539.38;6042794;29;20053;-92
2022/11/12 11:59:33;;;;;;;5.93;5.22;;;;;;;-145.48;100.00;64539.38;6047696;29;20065;-92
2022/11/12 12:03:17;;;;;;;7.70;3.92;;;;;;;-145.48;100.00;64539.38;6035663;29;20088;-92
2022/11/12 12:06:51;;;;;;;3.92;3.25;;;;;;;-145.48;100.00;64539.38;6039233;29;20053;-92
2022/11/12 12:10:15;;;;;;;3.28;2.60;;;;;;;-145.48;100.00;64539.38;6043012;29;20053;-93
2022/11/12 12:13:45;;;;;;;4.57;2.70;;;;;;;-145.48;100.00;64539.38;6034166;29;20734;-92
2022/11/12 12:17:30;;;;;;;3.53;2.65;;;;;;;-145.48;100.00;64539.38;6025519;29;20049;-92
2022/11/12 12:21:08;;;;;;;3.72;2.70;;;;;;;-145.48;100.00;64539.38;6033461;29;20144;-92
2022/11/12 12:24:36;;;;;;;4.28;2.72;;;;;;;-145.48;100.00;64539.38;6028423;29;20524;-92
2022/11/12 12:28:11;;;;;;;5.00;3.25;;;;;;;-145.48;100.00;64539.38;6034218;29;20049;-92
2022/11/12 12:31:46;;;;;;;4.75;3.28;;;;;;;-145.48;100.00;64539.38;6030730;29;20073;-92
2022/11/12 12:35:20;;;;;;;4.78;3.08;;;;;;;-145.48;100.00;64539.38;6036649;29;20500;-92
2022/11/12 12:39:02;;;;;;;5.32;2.92;;;;;;;-145.48;100.00;64539.38;6033622;29;20052;-93
2022/11/12 12:42:44;;;;;;;5.72;3.35;;;;;;;-145.48;100.00;64539.38;6032820;29;20058;-92
2022/11/12 12:46:05;;;;;;;6.45;3.30;;;;;;;-145.48;100.00;64539.38;6037071;29;20253;-93
2022/11/12 12:49:31;;;;;;;8.10;3.30;;;;;;;-145.48;100.00;64539.38;6039557;29;20041;-93
2022/11/12 12:53:29;;;;;;;4.43;3.30;;;;;;;-145.48;100.00;64539.38;6050361;29;20060;-93
2022/11/12 12:56:49;;;;;;;5.65;3.33;;;;;;;-145.48;100.00;64539.38;6045103;29;20135;-93
2022/11/12 13:00:37;;;;;;;5.75;3.53;;;;;;;-145.48;100.00;64539.38;6049632;29;20065;-92
2022/11/12 13:04:00;;;;;;;4.50;3.15;;;;;;;-145.48;100.00;64539.38;6041405;29;20473;-93
2022/11/12 13:07:39;;;;;;;5.82;3.65;;;;;;;-145.48;100.00;64539.38;6051338;29;20585;-93
2022/11/12 13:10:59;;;;;;;6.63;3.65;;;;;;;-145.48;100.00;64539.38;6051586;29;20053;-92
2022/11/12 13:14:35;;;;;;;5.07;3.50;;;;;;;-145.48;100.00;64539.38;6051250;29;20052;-92
2022/11/12 13:17:55;;;;;;;9.23;4.78;;;;;;;-145.48;100.00;64539.38;6043674;29;20049;-92
2022/11/12 13:21:22;;;;;;;6.55;4.20;;;;;;;-145.48;100.00;64539.38;6042409;29;20053;-92
2022/11/12 13:25:22;;;;;;;6.25;3.38;;;;;;;-145.48;100.00;64539.38;6041819;29;20053;-92
2022/11/12 13:29:21;;;;;;;6.82;3.95;;;;;;;-145.48;100.00;64539.38;6038777;29;20045;-92
2022/11/12 13:32:45;;;;;;;5.35;4.15;;;;;;;-145.48;100.00;64539.38;6039072;29;20096;-92
2022/11/12 13:36:28;;;;;;;7.72;4.22;;;;;;;-145.48;100.00;64539.38;6035096;29;20599;-92
2022/11/12 13:39:49;;;;;;;5.10;4.22;;;;;;;-145.48;100.00;64539.38;6033429;29;20057;-92
2022/11/12 13:43:39;;;;;;;7.05;3.88;;;;;;;-145.48;100.00;64539.38;6034570;29;20058;-93
2022/11/12 13:46:59;;;;;;;4.90;3.83;;;;;;;-145.48;100.00;64539.38;6035741;29;20057;-94
2022/11/12 13:50:23;;;;;;;7.45;4.07;;;;;;;-145.48;100.00;64539.38;6041535;29;20436;-93
2022/11/12 13:53:45;;;;;;;7.97;4.60;;;;;;;-145.48;100.00;64539.38;6039457;29;20053;-93
2022/11/12 13:57:35;;;;;;;6.63;4.20;;;;;;;-145.48;100.00;64539.38;6037276;29;20053;-93
2022/11/12 14:01:00;;;;;;;6.72;3.85;;;;;;;-145.48;100.00;64539.38;6015405;29;20132;-93
2022/11/12 14:04:23;;;;;;;5.45;4.40;;;;;;;-145.48;100.00;64539.38;6019460;29;20062;-92
2022/11/12 14:08:08;;;;;;;6.72;3.95;;;;;;;-145.48;100.00;64539.38;6009673;29;20057;-93
2022/11/12 14:11:52;;;;;;;4.80;3.90;;;;;;;-145.48;100.00;64539.38;6020590;29;20064;-92
2022/11/12 14:15:28;;;;;;;5.35;3.92;;;;;;;-145.48;100.00;64539.38;6016133;29;20490;-92
2022/11/12 14:19:02;;;;;;;6.50;4.00;;;;;;;-145.48;100.00;64539.38;6017741;29;20354;-93
2022/11/12 14:22:23;;;;;;;6.13;4.18;;;;;;;-145.48;100.00;64539.38;6016488;29;20053;-93
2022/11/12 14:25:51;;;;;;;8.05;4.40;;;;;;;-145.48;100.00;64539.38;6033031;29;20058;-88
2022/11/12 14:29:16;;;;;;;5.80;3.60;;;;;;;-145.48;100.00;64539.38;6020836;29;20128;-92
2022/11/12 14:32:39;;;;;;;7.00;4.13;;;;;;;-145.48;100.00;64539.38;6017209;29;20049;-93
2022/11/12 14:36:03;;;;;;;5.60;3.42;;;;;;;-145.48;100.00;64539.38;6017258;29;20103;-93
2022/11/12 14:39:27;;;;;;;6.18;3.72;;;;;;;-145.48;100.00;64539.38;6028690;29;20503;-93
2022/11/12 14:42:48;;;;;;;4.90;3.72;;;;;;;-145.48;100.00;64539.38;6028131;29;20578;-93
2022/11/12 14:46:22;;;;;;;6.18;4.20;;;;;;;-145.48;100.00;64539.38;6027487;29;20041;-93
2022/11/12 14:49:46;;;;;;;8.32;4.15;;;;;;;-145.48;100.00;64539.38;6043577;29;20124;-93
2022/11/12 14:53:29;;;;;;;6.22;4.47;;;;;;;-145.48;100.00;64539.38;6048344;29;20048;-94
2022/11/12 14:56:51;;;;;;;6.22;3.85;;;;;;;-145.48;100.00;64539.38;6056107;29;20181;-93
2022/11/12 15:00:33;;;;;;;7.30;4.40;;;;;;;-145.48;100.00;64539.38;6044760;29;20057;-92
2022/11/12 15:04:23;;;;;;;6.18;3.28;;;;;;;-145.48;100.00;64539.38;6049894;29;20049;-93
2022/11/12 15:08:03;;;;;;;7.25;3.90;;;;;;;-145.48;100.00;64539.38;6042726;29;20056;-93
2022/11/12 15:11:47;;;;;;;6.82;4.05;;;;;;;-145.48;100.00;64539.38;6025721;29;20101;-93
2022/11/12 15:15:16;;;;;;;7.68;4.07;;;;;;;-145.48;100.00;64539.38;6046516;29;20068;-92
2022/11/12 15:18:38;;;;;;;4.75;4.03;;;;;;;-145.48;100.00;64539.38;6039560;29;20057;-92
2022/11/12 15:22:01;;;;;;;7.88;5.00;;;;;;;-145.48;100.00;64539.38;6043827;29;20049;-93
2022/11/12 15:25:29;;;;;;;7.88;5.10;;;;;;;-145.48;100.00;64539.38;6055600;29;20463;-92
2022/11/12 15:29:09;;;;;;;18.00;10.27;;;;;;;-145.48;100.00;64539.38;6056562;29;20487;-92
2022/11/12 15:32:32;;;;;;;11.30;7.88;;;;;;;-145.48;100.00;64539.38;6051315;29;20053;-93
2022/11/12 15:36:00;;;;;;;9.30;6.47;;;;;;;-145.48;100.00;64539.38;6050394;29;20495;-92
2022/11/12 15:39:22;;;;;;;9.00;6.50;;;;;;;-145.48;100.00;64539.38;6043053;29;20061;-93
2022/11/12 15:42:44;;;;;;;11.35;8.63;;;;;;;-145.48;100.00;64539.38;6054869;29;20057;-93
2022/11/12 15:46:04;;;;;;;8.30;6.70;;;;;;;-145.48;100.00;64539.38;6031645;29;20048;-93
2022/11/12 15:49:25;;;;;;;9.35;7.28;;;;;;;-145.48;100.00;64539.38;6044955;29;20515;-93
2022/11/12 15:52:46;;;;;;;;;;;;;;;-145.48;100.00;64539.38;6043753;29;20052;-94
2022/11/12 15:56:20;;;;;;;9.80;5.80;;;;;;;-145.48;100.00;64539.38;6037126;29;20409;-95
2022/11/12 15:59:43;;;;;;;9.57;5.97;;;;;;;-145.48;100.00;64539.38;6036827;29;20061;-95
2022/11/12 16:03:14;;;;;;;7.30;4.38;;;;;;;-145.48;100.00;64539.38;6029215;29;20219;-94